Sumisemaru No.5 — JE3162 — position and weather

sailwx.info

Track history (hours):
 
Tides and Currents Weather Stations Pressure Air Temp Water Temp Dewpoint Dewpoint Depression Visibility Wind Speed Wind Dir Waves Ship Positions

Sumisemaru No.5

Last reported at 2016-Apr-22 13:32 UTC. Time now 2016-May-06 13:02 UTC.
Position N 35°07' E 139°45'.
Warning: this ship's position is 13 days out of date.

Length 96 m; draft 5.3 m.

Type: Cargo ship. MMSI: 431700423.

Date/timePositionNaut miles runAvg speedWind from/ knotsBaromVisibWave heightAir tempDewpointWater temp
2016-Apr-22 13:32N 35°07' E 139°45'1212.6
2016-Apr-22 12:33N 35°19' E 139°43'1313.2
2016-Apr-22 11:33N 35°30' E 139°52'1211.5
2016-Apr-22 10:33N 35°40' E 140°00'0 0.1
2016-Apr-22 09:31N 35°40' E 140°00'0 0.0
2016-Apr-22 08:31N 35°40' E 140°00'0 0.0
2016-Apr-22 07:31N 35°40' E 140°00'0 0.0
2016-Apr-22 06:25N 35°40' E 140°00'0 0.0
2016-Apr-22 05:31N 35°40' E 140°00'0 0.0
2016-Apr-22 04:31N 35°40' E 140°00'0 0.0
2016-Apr-22 03:25N 35°40' E 140°00'0 0.0
2016-Apr-22 02:31N 35°40' E 140°00'0 0.0
2016-Apr-22 01:19N 35°40' E 140°00'0 0.0
2016-Apr-22 00:31N 35°40' E 140°00'0 0.0
2016-Apr-21 23:31N 35°40' E 140°00'0 0.0
2016-Apr-21 22:27N 35°40' E 140°00'0 0.0
2016-Apr-21 20:19N 35°40' E 140°00'0 0.0
2016-Apr-21 19:31N 35°40' E 140°00'0 0.0
2016-Apr-21 18:19N 35°40' E 140°00'0 0.0
2016-Apr-21 17:31N 35°40' E 140°00'0 0.0
2016-Apr-21 16:25N 35°40' E 140°00'0 0.0
2016-Apr-21 15:31N 35°40' E 140°00'0 0.0
2016-Apr-21 14:25N 35°40' E 140°00'0 0.0
2016-Apr-21 13:24N 35°40' E 140°00'0 0.0
2016-Apr-21 12:30N 35°40' E 140°00'0 0.0
2016-Apr-21 11:30N 35°40' E 140°00'0 0.0
2016-Apr-21 10:24N 35°40' E 140°00'0 0.0
2016-Apr-21 09:24N 35°40' E 140°00'0 0.0
2016-Apr-21 08:30N 35°40' E 140°00'4 4.7
2016-Apr-21 07:33N 35°36' E 139°59'1313.1
2016-Apr-21 06:33N 35°26' E 139°48'1211.9
2016-Apr-21 05:34N 35°14' E 139°47'237 9.1
2016-Apr-20 03:33N 34°14' E 135°08'0 0.0
2016-Apr-19 22:22N 34°14' E 135°08'0 0.0
2016-Apr-19 21:18N 34°14' E 135°08'0 0.1
2016-Apr-19 20:27N 34°14' E 135°08'2 1.7
2016-Apr-19 19:33N 34°13' E 135°06'0 0.5
2016-Apr-19 18:33N 34°13' E 135°06'0 0.0
2016-Apr-19 17:27N 34°13' E 135°06'0 0.0
2016-Apr-19 16:30N 34°13' E 135°06'0 0.0
2016-Apr-19 15:33N 34°13' E 135°06'0 0.0
2016-Apr-19 14:33N 34°13' E 135°06'0 0.0
2016-Apr-19 13:33N 34°13' E 135°06'0 0.0
2016-Apr-19 12:33N 34°13' E 135°06'238 9.4
2016-Apr-18 11:19N 35°15' E 139°46'912.1
2016-Apr-18 10:34N 35°23' E 139°42'6 5.5
2016-Apr-18 09:31N 35°29' E 139°40'0 0.0
2016-Apr-18 08:33N 35°29' E 139°40'0 0.0
2016-Apr-18 07:33N 35°29' E 139°40'0 0.0
2016-Apr-18 06:33N 35°29' E 139°40'0 0.0
2016-Apr-18 05:33N 35°29' E 139°40'0 0.0
2016-Apr-18 04:33N 35°29' E 139°40'0 0.0
2016-Apr-18 03:30N 35°29' E 139°40'0 0.0
2016-Apr-18 02:33N 35°29' E 139°40'0 0.0
2016-Apr-18 01:33N 35°29' E 139°40'0 0.0
2016-Apr-18 00:33N 35°29' E 139°40'0 0.0
2016-Apr-17 23:33N 35°29' E 139°40'3 2.7
2016-Apr-17 22:33N 35°26' E 139°42'1 0.9
2016-Apr-17 21:33N 35°26' E 139°42'0 0.0
2016-Apr-17 20:33N 35°26' E 139°42'0 0.0
2016-Apr-17 19:33N 35°26' E 139°42'0 0.0
2016-Apr-17 18:33N 35°26' E 139°42'0 0.0
2016-Apr-17 17:33N 35°26' E 139°42'0 0.0
2016-Apr-17 16:34N 35°26' E 139°42'0 0.0
2016-Apr-17 15:33N 35°26' E 139°42'0 0.0
2016-Apr-17 14:33N 35°26' E 139°42'0 0.0
2016-Apr-17 13:33N 35°26' E 139°42'0 0.0
2016-Apr-17 12:32N 35°26' E 139°42'0 0.0
2016-Apr-17 11:33N 35°26' E 139°42'0 0.0
2016-Apr-17 10:33N 35°26' E 139°42'0 0.1
2016-Apr-17 09:33N 35°26' E 139°42'0 0.0
2016-Apr-17 08:33N 35°26' E 139°42'0 0.0
2016-Apr-17 07:33N 35°26' E 139°42'0 0.0
2016-Apr-17 06:33N 35°26' E 139°42'0 0.0
2016-Apr-17 05:33N 35°26' E 139°42'0 0.1
2016-Apr-17 04:33N 35°26' E 139°42'10 9.8
2016-Apr-17 03:33N 35°16' E 139°46'237 9.0
2016-Apr-16 01:21N 34°33' E 135°02'810.2
2016-Apr-16 00:32N 34°37' E 134°54'2 0.1
2016-Apr-14 15:27N 34°37' E 134°57'1213.5
2016-Apr-14 14:33N 34°36' E 135°12'1312.8
2016-Apr-14 13:33N 34°40' E 135°26'0 0.0
2016-Apr-14 01:27N 34°40' E 135°26'8 4.0
2016-Apr-13 23:33N 34°36' E 135°18'0 0.0
2016-Apr-13 22:33N 34°36' E 135°18'0 0.1
2016-Apr-13 21:11N 34°36' E 135°18'4 6.7
2016-Apr-13 20:33N 34°35' E 135°13'14 0.6
2016-Apr-12 23:14N 34°37' E 134°57'710.4
2016-Apr-12 22:33N 34°35' E 135°05'2411.9
2016-Apr-12 20:30N 34°11' E 134°59'  
Track history (hours):
 
Tides and Currents Weather Stations Pressure Air Temp Water Temp Dewpoint Dewpoint Depression Visibility Wind Speed Wind Dir Waves Ship Positions

Sumisemaru No.5

Last reported at 2016-Apr-22 13:32 UTC. Time now 2016-May-06 13:02 UTC.
Position N 35°07' E 139°45'.
Warning: this ship's position is 13 days out of date.

Length 96 m; draft 5.3 m.

Type: Cargo ship. MMSI: 431700423.

Date/timePositionNaut miles runAvg speedWind from/ knotsBaromVisibWave heightAir tempDewpointWater temp
2016-Apr-22 13:32N 35°07' E 139°45'1212.6
2016-Apr-22 12:33N 35°19' E 139°43'1313.2
2016-Apr-22 11:33N 35°30' E 139°52'1211.5
2016-Apr-22 10:33N 35°40' E 140°00'0 0.1
2016-Apr-22 09:31N 35°40' E 140°00'0 0.0
2016-Apr-22 08:31N 35°40' E 140°00'0 0.0
2016-Apr-22 07:31N 35°40' E 140°00'0 0.0
2016-Apr-22 06:25N 35°40' E 140°00'0 0.0
2016-Apr-22 05:31N 35°40' E 140°00'0 0.0
2016-Apr-22 04:31N 35°40' E 140°00'0 0.0
2016-Apr-22 03:25N 35°40' E 140°00'0 0.0
2016-Apr-22 02:31N 35°40' E 140°00'0 0.0
2016-Apr-22 01:19N 35°40' E 140°00'0 0.0
2016-Apr-22 00:31N 35°40' E 140°00'0 0.0
2016-Apr-21 23:31N 35°40' E 140°00'0 0.0
2016-Apr-21 22:27N 35°40' E 140°00'0 0.0
2016-Apr-21 20:19N 35°40' E 140°00'0 0.0
2016-Apr-21 19:31N 35°40' E 140°00'0 0.0
2016-Apr-21 18:19N 35°40' E 140°00'0 0.0
2016-Apr-21 17:31N 35°40' E 140°00'0 0.0
2016-Apr-21 16:25N 35°40' E 140°00'0 0.0
2016-Apr-21 15:31N 35°40' E 140°00'0 0.0
2016-Apr-21 14:25N 35°40' E 140°00'0 0.0
2016-Apr-21 13:24N 35°40' E 140°00'0 0.0
2016-Apr-21 12:30N 35°40' E 140°00'0 0.0
2016-Apr-21 11:30N 35°40' E 140°00'0 0.0
2016-Apr-21 10:24N 35°40' E 140°00'0 0.0
2016-Apr-21 09:24N 35°40' E 140°00'0 0.0
2016-Apr-21 08:30N 35°40' E 140°00'4 4.7
2016-Apr-21 07:33N 35°36' E 139°59'1313.1
2016-Apr-21 06:33N 35°26' E 139°48'1211.9
2016-Apr-21 05:34N 35°14' E 139°47'237 9.1
2016-Apr-20 03:33N 34°14' E 135°08'0 0.0
2016-Apr-19 22:22N 34°14' E 135°08'0 0.0
2016-Apr-19 21:18N 34°14' E 135°08'0 0.1
2016-Apr-19 20:27N 34°14' E 135°08'2 1.7
2016-Apr-19 19:33N 34°13' E 135°06'0 0.5
2016-Apr-19 18:33N 34°13' E 135°06'0 0.0
2016-Apr-19 17:27N 34°13' E 135°06'0 0.0
2016-Apr-19 16:30N 34°13' E 135°06'0 0.0
2016-Apr-19 15:33N 34°13' E 135°06'0 0.0
2016-Apr-19 14:33N 34°13' E 135°06'0 0.0
2016-Apr-19 13:33N 34°13' E 135°06'0 0.0
2016-Apr-19 12:33N 34°13' E 135°06'238 9.4
2016-Apr-18 11:19N 35°15' E 139°46'912.1
2016-Apr-18 10:34N 35°23' E 139°42'6 5.5
2016-Apr-18 09:31N 35°29' E 139°40'0 0.0
2016-Apr-18 08:33N 35°29' E 139°40'0 0.0
2016-Apr-18 07:33N 35°29' E 139°40'0 0.0
2016-Apr-18 06:33N 35°29' E 139°40'0 0.0
2016-Apr-18 05:33N 35°29' E 139°40'0 0.0
2016-Apr-18 04:33N 35°29' E 139°40'0 0.0
2016-Apr-18 03:30N 35°29' E 139°40'0 0.0
2016-Apr-18 02:33N 35°29' E 139°40'0 0.0
2016-Apr-18 01:33N 35°29' E 139°40'0 0.0
2016-Apr-18 00:33N 35°29' E 139°40'0 0.0
2016-Apr-17 23:33N 35°29' E 139°40'3 2.7
2016-Apr-17 22:33N 35°26' E 139°42'1 0.9
2016-Apr-17 21:33N 35°26' E 139°42'0 0.0
2016-Apr-17 20:33N 35°26' E 139°42'0 0.0
2016-Apr-17 19:33N 35°26' E 139°42'0 0.0
2016-Apr-17 18:33N 35°26' E 139°42'0 0.0
2016-Apr-17 17:33N 35°26' E 139°42'0 0.0
2016-Apr-17 16:34N 35°26' E 139°42'0 0.0
2016-Apr-17 15:33N 35°26' E 139°42'0 0.0
2016-Apr-17 14:33N 35°26' E 139°42'0 0.0
2016-Apr-17 13:33N 35°26' E 139°42'0 0.0
2016-Apr-17 12:32N 35°26' E 139°42'0 0.0
2016-Apr-17 11:33N 35°26' E 139°42'0 0.0
2016-Apr-17 10:33N 35°26' E 139°42'0 0.1
2016-Apr-17 09:33N 35°26' E 139°42'0 0.0
2016-Apr-17 08:33N 35°26' E 139°42'0 0.0
2016-Apr-17 07:33N 35°26' E 139°42'0 0.0
2016-Apr-17 06:33N 35°26' E 139°42'0 0.0
2016-Apr-17 05:33N 35°26' E 139°42'0 0.1
2016-Apr-17 04:33N 35°26' E 139°42'10 9.8
2016-Apr-17 03:33N 35°16' E 139°46'237 9.0
2016-Apr-16 01:21N 34°33' E 135°02'810.2
2016-Apr-16 00:32N 34°37' E 134°54'2 0.1
2016-Apr-14 15:27N 34°37' E 134°57'1213.5
2016-Apr-14 14:33N 34°36' E 135°12'1312.8
2016-Apr-14 13:33N 34°40' E 135°26'0 0.0
2016-Apr-14 01:27N 34°40' E 135°26'8 4.0
2016-Apr-13 23:33N 34°36' E 135°18'0 0.0
2016-Apr-13 22:33N 34°36' E 135°18'0 0.1
2016-Apr-13 21:11N 34°36' E 135°18'4 6.7
2016-Apr-13 20:33N 34°35' E 135°13'14 0.6
2016-Apr-12 23:14N 34°37' E 134°57'710.4
2016-Apr-12 22:33N 34°35' E 135°05'2411.9
2016-Apr-12 20:30N 34°11' E 134°59'  

Dump ship's entire track history